Time,TemperatureF,DewpointF,PressureIn,WindDirection,WindDirectionDegrees,WindSpeedMPH,WindSpeedGustMPH,Humidity,HourlyPrecipIn,Conditions,Clouds,dailyrainin,SoftwareType,DateUTC
2013-04-19 00:36:00,45.1,33.2,30.02,East,94,2.0,4.0,63,0.00,,,0.00,Wunderground v.1.15,2013-04-19 04:36:00,
2013-04-19 00:46:00,45.4,33.1,30.01,ESE,106,2.0,2.0,62,0.00,,,0.00,Wunderground v.1.15,2013-04-19 04:46:00,
2013-04-19 00:56:00,45.4,33.1,30.01,ESE,102,3.0,3.0,62,0.00,,,0.00,Wunderground v.1.15,2013-04-19 04:56:00,
2013-04-19 02:16:00,44.5,33.1,29.96,ENE,76,0.0,4.0,64,0.00,,,0.00,Wunderground v.1.15,2013-04-19 06:16:00,
2013-04-19 02:26:00,45.1,32.8,29.96,ENE,76,0.0,4.0,62,0.00,,,0.00,Wunderground v.1.15,2013-04-19 06:26:00,
2013-04-19 03:16:00,47.0,34.6,29.94,East,92,2.0,2.0,62,0.00,,,0.00,Wunderground v.1.15,2013-04-19 07:16:00,
2013-04-19 03:26:00,47.4,35.4,29.94,SE,145,3.0,3.0,63,0.00,,,0.00,Wunderground v.1.15,2013-04-19 07:26:00,
2013-04-19 04:06:00,47.6,39.4,29.91,South,188,4.0,14.0,73,0.00,,,0.00,Wunderground v.1.15,2013-04-19 08:06:00,
2013-04-19 04:16:00,47.9,40.4,29.91,ESE,105,6.0,6.0,75,0.00,,,0.00,Wunderground v.1.15,2013-04-19 08:16:00,
2013-04-19 04:26:00,47.7,40.8,29.91,SE,146,5.0,5.0,77,0.00,,,0.00,Wunderground v.1.15,2013-04-19 08:26:00,
2013-04-19 04:56:00,48.0,42.1,29.90,ESE,113,6.0,14.0,80,0.00,,,0.00,Wunderground v.1.15,2013-04-19 08:56:00,
2013-04-19 05:35:00,50.1,44.5,29.88,SE,130,6.0,13.0,81,0.00,,,0.00,Wunderground v.1.15,2013-04-19 09:35:00,
2013-04-19 05:46:00,49.6,44.3,29.88,East,101,3.0,13.0,82,0.00,,,0.00,Wunderground v.1.15,2013-04-19 09:46:00,
2013-04-19 05:56:00,49.5,44.2,29.88,ESE,123,4.0,4.0,82,0.00,,,0.00,Wunderground v.1.15,2013-04-19 09:56:00,
2013-04-19 06:16:00,49.9,44.6,29.90,WNW,293,3.0,12.0,82,0.00,,,0.00,Wunderground v.1.15,2013-04-19 10:16:00,
2013-04-19 06:26:00,50.1,44.8,29.90,SE,138,2.0,12.0,82,0.00,,,0.00,Wunderground v.1.15,2013-04-19 10:26:00,
2013-04-19 06:46:00,51.1,45.8,29.89,ESE,123,3.0,3.0,82,0.00,,,0.00,Wunderground v.1.15,2013-04-19 10:46:00,
2013-04-19 07:36:00,51.0,46.3,29.88,SE,144,2.0,8.0,84,0.00,,,0.00,Wunderground v.1.15,2013-04-19 11:36:00,
2013-04-19 07:46:00,51.1,46.7,29.88,SE,137,5.0,8.0,85,0.00,,,0.00,Wunderground v.1.15,2013-04-19 11:46:00,
2013-04-19 07:56:00,51.7,47.0,29.88,East,82,5.0,8.0,84,0.00,,,0.00,Wunderground v.1.15,2013-04-19 11:56:00,
2013-04-19 08:05:00,52.3,47.6,29.87,SSE,159,3.0,11.0,84,0.00,,,0.00,Wunderground v.1.15,2013-04-19 12:05:00,
2013-04-19 08:15:00,53.1,47.7,29.87,East,98,3.0,11.0,82,0.00,,,0.00,Wunderground v.1.15,2013-04-19 12:15:00,
2013-04-19 08:26:00,54.7,48.6,29.87,ESE,113,3.0,11.0,80,0.00,,,0.00,Wunderground v.1.15,2013-04-19 12:26:00,
2013-04-19 09:15:00,60.9,51.0,29.84,WSW,246,3.0,3.0,70,0.00,,,0.00,Wunderground v.1.15,2013-04-19 13:15:00,
2013-04-19 09:26:00,61.5,51.2,29.84,SW,229,3.0,9.0,69,0.00,,,0.00,Wunderground v.1.15,2013-04-19 13:26:00,
2013-04-19 09:46:00,61.8,51.5,29.83,WNW,298,5.0,5.0,69,0.00,,,0.00,Wunderground v.1.15,2013-04-19 13:46:00,
2013-04-19 10:36:00,64.8,51.9,29.81,WSW,257,5.0,5.0,63,0.00,,,0.00,Wunderground v.1.15,2013-04-19 14:36:00,
2013-04-19 10:46:00,64.3,51.0,29.81,SW,232,7.0,7.0,62,0.00,,,0.00,Wunderground v.1.15,2013-04-19 14:46:00,
2013-04-19 10:56:00,64.3,51.0,29.81,WSW,242,5.0,5.0,62,0.00,,,0.00,Wunderground v.1.15,2013-04-19 14:56:00,
2013-04-19 11:36:00,63.5,50.7,29.80,SW,224,6.0,6.0,63,0.00,,,0.00,Wunderground v.1.15,2013-04-19 15:36:00,
2013-04-19 11:46:00,64.2,50.5,29.79,West,281,3.0,16.0,61,0.00,,,0.00,Wunderground v.1.15,2013-04-19 15:46:00,
2013-04-19 11:56:00,63.5,51.1,29.79,WSW,238,6.0,16.0,64,0.00,,,0.00,Wunderground v.1.15,2013-04-19 15:56:00,
2013-04-19 12:06:00,64.0,51.6,29.78,West,265,3.0,17.0,64,0.00,,,0.00,Wunderground v.1.15,2013-04-19 16:06:00,
2013-04-19 12:16:00,63.7,51.7,29.77,SW,219,4.0,17.0,65,0.00,,,0.00,Wunderground v.1.15,2013-04-19 16:16:00,
2013-04-19 12:26:00,63.9,51.9,29.77,SW,234,4.0,4.0,65,0.00,,,0.00,Wunderground v.1.15,2013-04-19 16:26:00,
2013-04-19 13:36:00,67.1,52.7,29.72,SSW,202,4.0,12.0,60,0.00,,,0.00,Wunderground v.1.15,2013-04-19 17:36:00,
2013-04-19 13:46:00,67.1,52.7,29.71,WSW,255,3.0,3.0,60,0.00,,,0.00,Wunderground v.1.15,2013-04-19 17:46:00,
2013-04-19 13:56:00,67.8,52.9,29.71,WSW,239,3.0,12.0,59,0.00,,,0.00,Wunderground v.1.15,2013-04-19 17:56:00,
2013-04-19 14:36:00,67.9,53.0,29.68,West,270,3.0,17.0,59,0.00,,,0.00,Wunderground v.1.15,2013-04-19 18:36:00,
2013-04-19 14:46:00,68.6,53.2,29.67,WNW,286,3.0,17.0,58,0.00,,,0.00,Wunderground v.1.15,2013-04-19 18:46:00,
2013-04-19 14:56:00,68.3,53.4,29.67,SSW,196,4.0,4.0,59,0.00,,,0.00,Wunderground v.1.15,2013-04-19 18:56:00,
2013-04-19 15:36:00,69.8,53.9,29.64,West,263,8.0,28.0,57,0.00,,,0.00,Wunderground v.1.15,2013-04-19 19:36:00,
2013-04-19 16:06:00,70.4,54.0,29.63,West,261,6.0,6.0,56,0.00,,,0.00,Wunderground v.1.15,2013-04-19 20:06:00,
2013-04-19 16:16:00,69.9,54.0,29.63,WSW,238,7.0,27.0,57,0.00,,,0.00,Wunderground v.1.15,2013-04-19 20:16:00,
2013-04-19 16:26:00,69.6,54.2,29.63,WSW,248,4.0,27.0,58,0.00,,,0.00,Wunderground v.1.15,2013-04-19 20:26:00,
2013-04-19 17:36:00,69.1,55.1,29.60,SSE,161,2.0,2.0,61,0.00,,,0.00,Wunderground v.1.15,2013-04-19 21:36:00,
2013-04-19 17:46:00,68.1,55.5,29.59,SSE,155,2.0,14.0,64,0.00,,,0.00,Wunderground v.1.15,2013-04-19 21:46:00,
2013-04-19 18:16:00,66.9,56.0,29.58,SSW,212,3.0,3.0,68,0.00,,,0.00,Wunderground v.1.15,2013-04-19 22:16:00,
2013-04-19 18:26:00,66.3,55.8,29.58,SSE,155,4.0,15.0,69,0.00,,,0.00,Wunderground v.1.15,2013-04-19 22:26:00,
2013-04-19 18:56:00,65.6,55.9,29.56,ESE,119,4.0,12.0,71,0.00,,,0.00,Wunderground v.1.15,2013-04-19 22:56:00,
2013-04-19 19:06:00,65.6,55.9,29.55,ESE,123,3.0,17.0,71,0.00,,,0.00,Wunderground v.1.15,2013-04-19 23:06:00,
2013-04-19 19:16:00,65.8,56.1,29.55,ESE,109,4.0,17.0,71,0.00,,,0.00,Wunderground v.1.15,2013-04-19 23:16:00,
2013-04-19 19:26:00,65.8,56.5,29.55,SW,217,4.0,4.0,72,0.00,,,0.00,Wunderground v.1.15,2013-04-19 23:26:00,
2013-04-19 20:16:00,65.2,57.8,29.55,WSW,242,6.0,6.0,77,0.00,,,0.00,Wunderground v.1.15,2013-04-20 00:16:00,
2013-04-19 20:26:00,64.5,58.2,29.55,SSW,209,5.0,5.0,80,0.00,,,0.00,Wunderground v.1.15,2013-04-20 00:26:00,
2013-04-19 20:56:00,63.7,58.1,29.55,SW,226,4.0,4.0,82,0.00,,,0.00,Wunderground v.1.15,2013-04-20 00:56:00,
2013-04-19 21:06:00,64.0,58.1,29.54,SW,234,4.0,16.0,81,0.00,,,0.00,Wunderground v.1.15,2013-04-20 01:06:00,
2013-04-19 21:16:00,64.3,58.0,29.52,South,190,7.0,7.0,80,0.00,,,0.00,Wunderground v.1.15,2013-04-20 01:16:00,
2013-04-19 21:26:00,64.3,58.0,29.52,SW,236,4.0,4.0,80,0.00,,,0.00,Wunderground v.1.15,2013-04-20 01:26:00,
2013-04-19 22:06:00,64.3,58.0,29.50,SW,233,4.0,4.0,80,0.00,,,0.00,Wunderground v.1.15,2013-04-20 02:06:00,
2013-04-19 22:16:00,64.5,58.2,29.48,SSW,194,6.0,6.0,80,0.00,,,0.00,Wunderground v.1.15,2013-04-20 02:16:00,
2013-04-19 22:26:00,64.5,58.2,29.48,West,263,5.0,5.0,80,0.00,,,0.00,Wunderground v.1.15,2013-04-20 02:26:00,
2013-04-19 23:06:00,64.7,58.4,29.47,SW,230,4.0,4.0,80,0.00,,,0.00,Wunderground v.1.15,2013-04-20 03:06:00,
2013-04-19 23:16:00,64.5,58.2,29.46,SW,235,3.0,3.0,80,0.00,,,0.00,Wunderground v.1.15,2013-04-20 03:16:00,
2013-04-19 23:26:00,64.7,58.4,29.46,WSW,252,4.0,17.0,80,0.00,,,0.00,Wunderground v.1.15,2013-04-20 03:26:00,